Time;durP1;ratioP1;P1;durP2;ratioP2;P2;SDS_P1;SDS_P2;PMS_P1;PMS_P2;Temp;Humidity;BMP_temperature;BMP_pressure;BME280_temperature;BME280_humidity;BME280_pressure;Samples;Min_cycle;Max_cycle;Signal;HPM_P1;HPM_P2
2022/11/23 00:00:47;;;;;;;64.30;22.97;;;;;;;;;;5030994;28;20474;-65
2022/11/23 00:03:14;;;;;;;61.70;23.03;;;;;;;;;;5029634;28;20531;-65
2022/11/23 00:05:41;;;;;;;59.03;23.53;;;;;;;;;;5031342;28;20520;-65
2022/11/23 00:08:08;;;;;;;64.33;23.10;;;;;;;;;;5030788;28;20825;-65
2022/11/23 00:10:35;;;;;;;66.83;26.13;;;;;;;;;;5030991;28;20565;-65
2022/11/23 00:13:19;;;;;;;62.07;23.67;;;;;;;;;;5018592;28;20461;-65
2022/11/23 00:15:45;;;;;;;62.30;23.83;;;;;;;;;;5031417;28;21315;-65
2022/11/23 00:18:30;;;;;;;58.03;21.80;;;;;;;;;;5030552;28;20918;-66
2022/11/23 00:20:56;;;;;;;70.23;24.53;;;;;;;;;;5031641;28;20529;-65
2022/11/23 00:23:23;;;;;;;55.53;21.87;;;;;;;;;;5030640;28;20457;-65
2022/11/23 00:25:49;;;;;;;60.20;22.17;;;;;;;;;;5012868;28;20484;-65
2022/11/23 00:28:16;;;;;;;54.53;19.63;;;;;;;;;;5031137;28;20910;-65
2022/11/23 00:30:47;;;;;;;60.20;22.47;;;;;;;;;;5001487;28;20889;-65
2022/11/23 00:33:13;;;;;;;60.27;22.07;;;;;;;;;;5027965;28;20851;-65
2022/11/23 00:35:40;;;;;;;58.33;21.33;;;;;;;;;;4999844;28;20504;-65
2022/11/23 00:38:07;;;;;;;57.90;21.67;;;;;;;;;;5012527;28;20443;-65
2022/11/23 00:40:34;;;;;;;53.33;21.53;;;;;;;;;;5030002;28;20442;-65
2022/11/23 00:43:01;;;;;;;53.00;20.70;;;;;;;;;;5030873;28;20442;-65
2022/11/23 00:45:48;;;;;;;49.27;20.87;;;;;;;;;;5030027;28;20466;-65
2022/11/23 00:48:15;;;;;;;51.53;20.33;;;;;;;;;;5030750;28;20446;-65
2022/11/23 00:50:42;;;;;;;60.13;21.17;;;;;;;;;;5030219;28;20500;-64
2022/11/23 00:53:09;;;;;;;50.50;20.47;;;;;;;;;;5012648;28;20470;-65
2022/11/23 00:55:36;;;;;;;57.87;21.40;;;;;;;;;;5030013;28;20478;-65
2022/11/23 00:58:02;;;;;;;56.97;21.60;;;;;;;;;;5031143;28;20485;-65
2022/11/23 01:00:29;;;;;;;60.33;22.43;;;;;;;;;;5030674;28;20922;-65
2022/11/23 01:02:55;;;;;;;53.40;21.30;;;;;;;;;;5012965;28;20492;-65
2022/11/23 01:05:22;;;;;;;51.70;21.03;;;;;;;;;;5013050;28;20442;-65
2022/11/23 01:07:49;;;;;;;58.07;22.33;;;;;;;;;;5029093;28;20489;-65
2022/11/23 01:10:15;;;;;;;57.90;21.37;;;;;;;;;;5012993;28;20844;-65
2022/11/23 01:12:42;;;;;;;56.23;20.97;;;;;;;;;;5020420;28;20810;-65
2022/11/23 01:15:09;;;;;;;52.17;21.50;;;;;;;;;;4993093;28;20969;-66
2022/11/23 01:17:36;;;;;;;53.40;21.13;;;;;;;;;;5010588;28;20466;-65
2022/11/23 01:20:03;;;;;;;54.13;21.73;;;;;;;;;;5010737;28;20435;-65
2022/11/23 01:22:29;;;;;;;57.53;21.83;;;;;;;;;;5009906;28;21041;-65
2022/11/23 01:24:56;;;;;;;58.43;21.53;;;;;;;;;;5012096;28;20480;-65
2022/11/23 01:27:40;;;;;;;58.80;22.87;;;;;;;;;;5007783;28;20802;-65
2022/11/23 01:30:07;;;;;;;59.03;22.83;;;;;;;;;;5010152;28;20465;-66
2022/11/23 01:32:33;;;;;;;56.10;21.80;;;;;;;;;;5010507;28;20431;-65
2022/11/23 01:35:00;;;;;;;61.30;22.40;;;;;;;;;;5025743;28;20454;-65
2022/11/23 01:37:26;;;;;;;61.20;22.07;;;;;;;;;;5029949;28;20484;-65
2022/11/23 01:39:53;;;;;;;65.90;23.77;;;;;;;;;;5029865;28;20458;-65
2022/11/23 01:42:19;;;;;;;58.60;23.30;;;;;;;;;;5029967;28;20435;-65
2022/11/23 01:44:47;;;;;;;65.10;24.13;;;;;;;;;;5027949;28;20482;-65
2022/11/23 01:47:13;;;;;;;55.57;22.80;;;;;;;;;;5029316;28;20582;-65
2022/11/23 01:49:44;;;;;;;56.03;21.77;;;;;;;;;;5028345;28;20489;-65
2022/11/23 01:52:11;;;;;;;55.50;22.43;;;;;;;;;;5012750;28;20525;-65
2022/11/23 01:54:55;;;;;;;64.67;23.07;;;;;;;;;;5014833;28;20975;-66
2022/11/23 01:57:32;;;;;;;60.80;23.60;;;;;;;;;;5029569;28;20453;-65
2022/11/23 01:59:59;;;;;;;53.10;22.27;;;;;;;;;;4995827;28;20474;-65
2022/11/23 02:02:26;;;;;;;59.43;23.27;;;;;;;;;;5010779;28;21013;-65
2022/11/23 02:04:52;;;;;;;54.80;21.63;;;;;;;;;;5028068;28;20450;-65
2022/11/23 02:07:19;;;;;;;52.37;22.73;;;;;;;;;;4995139;28;20446;-65
2022/11/23 02:09:46;;;;;;;61.27;24.73;;;;;;;;;;4990963;28;20467;-65
2022/11/23 02:12:13;;;;;;;60.87;24.17;;;;;;;;;;5003066;28;20450;-65
2022/11/23 02:14:41;;;;;;;60.27;22.83;;;;;;;;;;5015639;28;20865;-65
2022/11/23 02:17:09;;;;;;;56.73;23.60;;;;;;;;;;5028749;28;20537;-65
2022/11/23 02:19:56;;;;;;;57.70;22.33;;;;;;;;;;4991660;28;20454;-65
2022/11/23 02:22:30;;;;;;;56.90;23.23;;;;;;;;;;5007138;28;20452;-66
2022/11/23 02:24:56;;;;;;;59.43;23.37;;;;;;;;;;4995593;28;20459;-67
2022/11/23 02:27:24;;;;;;;58.97;23.93;;;;;;;;;;4995041;28;20462;-65
2022/11/23 02:29:50;;;;;;;63.50;24.40;;;;;;;;;;5027272;28;20864;-65
2022/11/23 02:32:21;;;;;;;60.00;23.07;;;;;;;;;;4994896;28;20461;-65
2022/11/23 02:34:48;;;;;;;60.17;23.00;;;;;;;;;;4993142;28;20501;-65
2022/11/23 02:37:15;;;;;;;56.53;23.50;;;;;;;;;;5029004;28;20477;-65
2022/11/23 02:39:43;;;;;;;64.77;26.23;;;;;;;;;;5011284;28;20442;-65
2022/11/23 02:42:10;;;;;;;61.67;23.57;;;;;;;;;;5009251;28;20434;-65
2022/11/23 02:44:55;;;;;;;62.70;24.90;;;;;;;;;;5029122;28;20930;-65
2022/11/23 02:47:22;;;;;;;64.83;24.07;;;;;;;;;;5010837;28;20446;-65
2022/11/23 02:49:48;;;;;;;61.67;23.43;;;;;;;;;;5011396;28;20518;-66
2022/11/23 02:52:16;;;;;;;60.73;23.57;;;;;;;;;;5011715;28;20845;-65
2022/11/23 02:55:00;;;;;;;61.57;23.80;;;;;;;;;;5011322;28;20493;-65
2022/11/23 02:57:28;;;;;;;60.50;24.40;;;;;;;;;;5010526;28;20846;-65
2022/11/23 03:00:12;;;;;;;59.10;23.03;;;;;;;;;;5029171;28;20765;-65
2022/11/23 03:02:41;;;;;;;60.27;24.33;;;;;;;;;;5027114;28;20500;-65
2022/11/23 03:05:10;;;;;;;59.60;23.43;;;;;;;;;;5010380;28;20453;-65
2022/11/23 03:07:36;;;;;;;54.57;22.27;;;;;;;;;;5029058;28;20475;-66
2022/11/23 03:10:03;;;;;;;64.00;23.77;;;;;;;;;;5011104;28;20593;-65
2022/11/23 03:12:30;;;;;;;58.73;22.43;;;;;;;;;;4986881;28;20474;-65
2022/11/23 03:14:58;;;;;;;61.63;23.47;;;;;;;;;;5020569;28;20594;-65
2022/11/23 03:17:26;;;;;;;61.33;24.27;;;;;;;;;;5014949;28;20464;-65
2022/11/23 03:20:12;;;;;;;56.27;24.47;;;;;;;;;;5014713;28;21017;-65
2022/11/23 03:22:43;;;;;;;59.00;24.10;;;;;;;;;;5014319;28;20446;-66
2022/11/23 03:25:11;;;;;;;68.20;24.80;;;;;;;;;;4995498;28;20526;-65
2022/11/23 03:27:38;;;;;;;60.83;22.90;;;;;;;;;;5007186;28;20464;-65
2022/11/23 03:30:06;;;;;;;62.20;24.17;;;;;;;;;;5014345;28;20470;-65
2022/11/23 03:32:34;;;;;;;64.87;23.17;;;;;;;;;;5014826;28;20444;-65
2022/11/23 03:35:01;;;;;;;66.17;24.77;;;;;;;;;;5014682;28;20442;-65
2022/11/23 03:37:28;;;;;;;65.67;24.13;;;;;;;;;;5014771;28;20449;-65
2022/11/23 03:39:55;;;;;;;64.97;25.50;;;;;;;;;;5014438;28;20446;-65
2022/11/23 03:42:41;;;;;;;65.07;24.80;;;;;;;;;;5030008;28;20461;-66
2022/11/23 03:45:26;;;;;;;64.90;23.50;;;;;;;;;;5013641;28;20608;-65
2022/11/23 03:47:53;;;;;;;66.33;24.33;;;;;;;;;;5031995;28;20422;-66
2022/11/23 03:50:38;;;;;;;60.17;24.17;;;;;;;;;;5013095;28;20484;-66
2022/11/23 03:53:05;;;;;;;63.33;25.07;;;;;;;;;;4997354;28;20446;-65
2022/11/23 03:55:32;;;;;;;68.87;25.07;;;;;;;;;;5031748;28;20524;-65
2022/11/23 03:57:59;;;;;;;63.57;23.30;;;;;;;;;;5014584;28;20441;-65
2022/11/23 04:00:29;;;;;;;61.30;24.93;;;;;;;;;;5013884;28;20454;-65
2022/11/23 04:02:56;;;;;;;65.60;23.80;;;;;;;;;;5014400;28;20446;-66
2022/11/23 04:05:43;;;;;;;56.27;23.93;;;;;;;;;;5031155;28;20446;-65
2022/11/23 04:08:39;;;;;;;66.80;24.23;;;;;;;;;;4979154;28;20441;-66
2022/11/23 04:11:12;;;;;;;61.60;25.27;;;;;;;;;;5013163;28;20484;-65
2022/11/23 04:13:56;;;;;;;52.97;23.13;;;;;;;;;;5028991;28;20426;-67
2022/11/23 04:16:23;;;;;;;61.50;23.37;;;;;;;;;;5031246;28;20446;-65
2022/11/23 04:18:49;;;;;;;59.37;23.33;;;;;;;;;;5030914;28;20512;-67
2022/11/23 04:21:16;;;;;;;56.40;24.00;;;;;;;;;;4996236;28;20453;-66
2022/11/23 04:23:43;;;;;;;60.37;23.17;;;;;;;;;;5013089;28;20446;-66
2022/11/23 04:26:12;;;;;;;62.73;23.13;;;;;;;;;;5012707;28;20456;-66
2022/11/23 04:28:42;;;;;;;60.50;24.03;;;;;;;;;;5012825;28;20981;-65
2022/11/23 04:31:09;;;;;;;60.17;22.63;;;;;;;;;;5011382;28;20524;-65
2022/11/23 04:33:48;;;;;;;58.10;22.40;;;;;;;;;;5009515;28;20901;-66
2022/11/23 04:36:17;;;;;;;57.97;23.13;;;;;;;;;;5016463;28;20458;-65
2022/11/23 04:38:43;;;;;;;59.23;22.03;;;;;;;;;;5029882;28;20446;-66
2022/11/23 04:41:13;;;;;;;59.70;23.60;;;;;;;;;;5012205;28;20532;-66
2022/11/23 04:43:40;;;;;;;56.43;22.50;;;;;;;;;;4997138;28;20507;-66
2022/11/23 04:46:24;;;;;;;53.13;20.67;;;;;;;;;;4997519;28;20472;-66
2022/11/23 04:48:52;;;;;;;58.60;22.67;;;;;;;;;;4997545;28;20529;-66
2022/11/23 04:51:20;;;;;;;53.73;21.67;;;;;;;;;;5011568;28;20483;-66
2022/11/23 04:53:46;;;;;;;58.73;22.20;;;;;;;;;;5029894;28;20438;-65
2022/11/23 04:56:13;;;;;;;43.83;17.33;;;;;;;;;;5011577;28;20482;-65
2022/11/23 04:58:41;;;;;;;54.93;20.90;;;;;;;;;;5012405;28;20446;-66
2022/11/23 05:01:07;;;;;;;57.87;22.40;;;;;;;;;;4999135;28;20450;-65
2022/11/23 05:03:43;;;;;;;54.93;20.20;;;;;;;;;;5003310;28;20512;-66
2022/11/23 05:06:11;;;;;;;54.10;21.07;;;;;;;;;;5012302;28;20480;-65
2022/11/23 05:08:40;;;;;;;65.77;22.50;;;;;;;;;;5012129;28;20434;-65
2022/11/23 05:11:30;;;;;;;58.07;21.43;;;;;;;;;;4992268;28;20961;-66
2022/11/23 05:13:59;;;;;;;66.00;22.77;;;;;;;;;;4996945;28;20983;-66
2022/11/23 05:16:28;;;;;;;60.33;23.27;;;;;;;;;;5010664;28;20457;-66
2022/11/23 05:18:54;;;;;;;62.93;22.07;;;;;;;;;;5011653;28;20453;-66
2022/11/23 05:21:39;;;;;;;61.30;22.17;;;;;;;;;;5011468;28;20441;-65
2022/11/23 05:24:05;;;;;;;63.30;24.17;;;;;;;;;;5008156;28;21117;-66
2022/11/23 05:26:33;;;;;;;64.10;22.67;;;;;;;;;;5016837;28;20465;-65
2022/11/23 05:28:59;;;;;;;65.00;23.27;;;;;;;;;;5011242;28;21004;-66
2022/11/23 05:31:26;;;;;;;67.77;25.37;;;;;;;;;;5010813;28;20536;-66
2022/11/23 05:33:53;;;;;;;67.13;23.97;;;;;;;;;;5010372;28;20969;-66
2022/11/23 05:36:31;;;;;;;63.63;23.90;;;;;;;;;;5010571;28;20481;-65
2022/11/23 05:38:58;;;;;;;65.13;25.03;;;;;;;;;;5011460;28;20447;-65
2022/11/23 05:41:29;;;;;;;65.70;25.27;;;;;;;;;;5009543;28;20799;-65
2022/11/23 05:43:59;;;;;;;65.63;25.13;;;;;;;;;;5010535;28;20964;-65
2022/11/23 05:46:27;;;;;;;69.00;24.50;;;;;;;;;;5006572;28;20452;-67
2022/11/23 05:48:54;;;;;;;70.37;26.57;;;;;;;;;;5031384;28;20499;-66
2022/11/23 05:51:22;;;;;;;72.70;25.30;;;;;;;;;;4995117;28;20483;-66
2022/11/23 05:53:49;;;;;;;70.83;25.53;;;;;;;;;;5030546;28;20446;-66
2022/11/23 05:56:28;;;;;;;68.53;25.07;;;;;;;;;;5010029;28;20481;-66
2022/11/23 05:59:10;;;;;;;72.30;24.50;;;;;;;;;;5027038;28;20460;-66
2022/11/23 06:01:40;;;;;;;68.07;25.20;;;;;;;;;;5007622;28;20454;-66
2022/11/23 06:04:09;;;;;;;73.63;25.57;;;;;;;;;;5010740;28;20824;-66
2022/11/23 06:06:40;;;;;;;73.87;25.53;;;;;;;;;;5013027;28;20450;-66
2022/11/23 06:09:07;;;;;;;68.27;25.00;;;;;;;;;;5012142;28;20450;-66
2022/11/23 06:11:35;;;;;;;69.87;25.10;;;;;;;;;;5011098;28;20477;-66
2022/11/23 06:14:08;;;;;;;74.63;25.93;;;;;;;;;;5012178;28;20445;-66
2022/11/23 06:16:42;;;;;;;71.50;26.73;;;;;;;;;;5011718;28;20504;-66
2022/11/23 06:19:19;;;;;;;75.10;27.10;;;;;;;;;;5009381;28;20454;-66
2022/11/23 06:21:46;;;;;;;72.43;24.17;;;;;;;;;;5009831;28;20463;-65
2022/11/23 06:24:18;;;;;;;74.27;23.30;;;;;;;;;;5010662;28;20462;-66
2022/11/23 06:26:51;;;;;;;75.60;25.83;;;;;;;;;;5010412;28;20454;-66
2022/11/23 06:29:35;;;;;;;74.77;25.43;;;;;;;;;;5011594;28;20422;-66
2022/11/23 06:32:02;;;;;;;75.13;26.90;;;;;;;;;;5011574;28;20531;-66
2022/11/23 06:34:28;;;;;;;90.17;31.50;;;;;;;;;;5011843;28;20443;-67
2022/11/23 06:36:55;;;;;;;86.03;28.70;;;;;;;;;;5011500;28;20448;-66
2022/11/23 06:39:22;;;;;;;72.73;23.37;;;;;;;;;;5011501;28;20444;-66
2022/11/23 06:41:49;;;;;;;85.57;27.33;;;;;;;;;;4993753;28;20808;-67
2022/11/23 06:44:17;;;;;;;87.17;27.40;;;;;;;;;;5009381;28;20452;-67
2022/11/23 06:46:44;;;;;;;82.00;27.53;;;;;;;;;;4992171;28;20565;-66
2022/11/23 06:49:11;;;;;;;78.20;26.77;;;;;;;;;;5008773;28;20845;-68
2022/11/23 06:51:41;;;;;;;79.93;26.37;;;;;;;;;;5012544;28;20523;-67
2022/11/23 06:54:07;;;;;;;96.67;28.10;;;;;;;;;;5029713;28;20452;-68
2022/11/23 06:56:35;;;;;;;78.43;24.67;;;;;;;;;;4995979;28;20480;-68
2022/11/23 06:59:02;;;;;;;86.10;28.13;;;;;;;;;;5009821;28;20542;-67
2022/11/23 07:01:29;;;;;;;81.33;26.17;;;;;;;;;;5011494;28;20838;-65
2022/11/23 07:04:02;;;;;;;87.57;26.83;;;;;;;;;;5013157;28;21129;-68
2022/11/23 07:06:33;;;;;;;82.80;27.73;;;;;;;;;;5030384;28;20817;-68
2022/11/23 07:09:06;;;;;;;92.17;26.13;;;;;;;;;;5009325;28;20486;-67
2022/11/23 07:11:50;;;;;;;76.50;25.80;;;;;;;;;;5012085;28;20486;-68
2022/11/23 07:14:17;;;;;;;73.37;26.00;;;;;;;;;;5013015;28;20533;-67
2022/11/23 07:16:46;;;;;;;78.43;26.60;;;;;;;;;;5012982;28;20818;-67
2022/11/23 07:19:13;;;;;;;85.17;27.40;;;;;;;;;;5013353;28;20549;-67
2022/11/23 07:21:58;;;;;;;68.90;24.90;;;;;;;;;;5012495;28;20512;-68
2022/11/23 07:24:25;;;;;;;75.50;24.60;;;;;;;;;;5012621;28;20442;-66
2022/11/23 07:26:51;;;;;;;79.13;26.77;;;;;;;;;;5009364;28;20451;-66
2022/11/23 07:29:18;;;;;;;80.17;26.60;;;;;;;;;;5011831;28;20489;-67
2022/11/23 07:31:45;;;;;;;79.87;25.83;;;;;;;;;;5011169;28;21441;-67
2022/11/23 07:34:12;;;;;;;78.03;26.03;;;;;;;;;;4995599;28;20505;-66
2022/11/23 07:36:40;;;;;;;76.40;26.00;;;;;;;;;;4995008;28;20442;-66
2022/11/23 07:39:07;;;;;;;73.80;26.00;;;;;;;;;;5011194;28;20446;-66
2022/11/23 07:41:35;;;;;;;77.93;26.37;;;;;;;;;;5011477;28;20460;-66
2022/11/23 07:44:19;;;;;;;76.90;25.43;;;;;;;;;;5011577;28;20450;-66
2022/11/23 07:46:46;;;;;;;79.83;26.30;;;;;;;;;;5012686;28;20462;-66
2022/11/23 07:49:12;;;;;;;80.93;27.50;;;;;;;;;;4995425;28;20443;-67
2022/11/23 07:51:39;;;;;;;81.07;26.80;;;;;;;;;;5012523;28;20458;-67
2022/11/23 07:54:05;;;;;;;94.63;28.73;;;;;;;;;;5012325;28;20542;-67
2022/11/23 07:56:32;;;;;;;86.77;27.17;;;;;;;;;;5012269;28;20541;-66
2022/11/23 07:58:58;;;;;;;83.40;26.77;;;;;;;;;;5012250;28;20439;-67
2022/11/23 08:01:26;;;;;;;79.17;29.60;;;;;;;;;;5012084;28;20835;-66
2022/11/23 08:03:53;;;;;;;97.97;29.13;;;;;;;;;;5020173;28;20868;-67
2022/11/23 08:06:19;;;;;;;83.90;29.17;;;;;;;;;;5034161;28;20462;-66
2022/11/23 08:08:46;;;;;;;81.60;28.20;;;;;;;;;;5033768;28;20472;-67
2022/11/23 08:11:19;;;;;;;91.80;28.33;;;;;;;;;;5034088;28;20843;-66
2022/11/23 08:13:46;;;;;;;94.57;29.13;;;;;;;;;;5032512;28;20438;-67
2022/11/23 08:16:13;;;;;;;80.93;28.23;;;;;;;;;;5034117;28;20438;-66
2022/11/23 08:18:39;;;;;;;73.60;25.00;;;;;;;;;;5033652;28;20430;-66
2022/11/23 08:21:23;;;;;;;73.47;25.67;;;;;;;;;;5033128;28;20414;-67
2022/11/23 08:23:50;;;;;;;77.40;24.30;;;;;;;;;;5031638;28;20437;-67
2022/11/23 08:26:17;;;;;;;76.47;24.97;;;;;;;;;;5031825;28;20507;-67
2022/11/23 08:28:43;;;;;;;74.33;23.33;;;;;;;;;;5031583;28;20434;-67
2022/11/23 08:31:10;;;;;;;77.13;25.20;;;;;;;;;;5027445;28;20438;-66
2022/11/23 08:33:37;;;;;;;85.37;26.30;;;;;;;;;;5028889;28;20941;-66
2022/11/23 08:36:04;;;;;;;73.03;25.03;;;;;;;;;;5027944;28;20985;-67
2022/11/23 08:38:31;;;;;;;78.60;24.30;;;;;;;;;;5010932;28;20435;-67
2022/11/23 08:40:59;;;;;;;81.67;26.50;;;;;;;;;;5028558;28;20568;-66
2022/11/23 08:43:26;;;;;;;74.50;25.50;;;;;;;;;;5029006;28;20442;-65
2022/11/23 08:45:56;;;;;;;77.77;26.20;;;;;;;;;;5028393;28;20445;-65
2022/11/23 08:48:30;;;;;;;76.87;25.90;;;;;;;;;;5028413;28;20438;-66
2022/11/23 08:50:57;;;;;;;76.60;25.17;;;;;;;;;;5028631;28;20441;-66
2022/11/23 08:53:24;;;;;;;73.20;26.40;;;;;;;;;;5011056;28;20485;-66
2022/11/23 08:55:51;;;;;;;76.43;27.03;;;;;;;;;;5027742;28;20454;-67
2022/11/23 08:58:18;;;;;;;73.97;25.00;;;;;;;;;;5028248;28;21048;-68
2022/11/23 09:00:45;;;;;;;80.70;28.67;;;;;;;;;;5027785;28;20542;-65
2022/11/23 09:03:12;;;;;;;78.50;27.50;;;;;;;;;;5029048;28;20435;-67
2022/11/23 09:05:38;;;;;;;80.30;26.97;;;;;;;;;;5028447;28;20449;-68
2022/11/23 09:08:06;;;;;;;82.20;25.67;;;;;;;;;;5029024;28;20458;-67
2022/11/23 09:10:33;;;;;;;91.50;30.97;;;;;;;;;;5028738;28;20445;-66
2022/11/23 09:13:00;;;;;;;90.97;30.40;;;;;;;;;;5027488;28;20482;-67
2022/11/23 09:15:27;;;;;;;79.60;26.97;;;;;;;;;;5027579;28;20941;-66
2022/11/23 09:17:54;;;;;;;89.73;27.33;;;;;;;;;;5028663;28;20446;-67
2022/11/23 09:20:21;;;;;;;80.07;26.77;;;;;;;;;;5010393;28;20581;-67
2022/11/23 09:22:51;;;;;;;83.07;27.20;;;;;;;;;;5028467;28;20438;-71
2022/11/23 09:25:18;;;;;;;94.10;28.23;;;;;;;;;;4990617;28;21210;-69
2022/11/23 09:27:45;;;;;;;72.73;26.00;;;;;;;;;;5008469;28;20528;-69
2022/11/23 09:30:12;;;;;;;72.17;25.93;;;;;;;;;;4994282;28;20450;-69
2022/11/23 09:32:39;;;;;;;80.00;27.90;;;;;;;;;;5026781;28;20912;-69
2022/11/23 09:35:06;;;;;;;73.27;25.40;;;;;;;;;;5009058;28;20460;-69
2022/11/23 09:37:33;;;;;;;77.97;27.37;;;;;;;;;;5028389;28;20438;-68
2022/11/23 09:40:00;;;;;;;76.33;25.03;;;;;;;;;;5025097;28;20481;-68
2022/11/23 09:42:50;;;;;;;77.73;25.37;;;;;;;;;;5010430;28;20774;-69
2022/11/23 09:45:30;;;;;;;75.60;27.43;;;;;;;;;;5005390;28;20959;-70
2022/11/23 09:48:34;;;;;;;85.10;27.57;;;;;;;;;;4993721;28;20451;-68
2022/11/23 09:51:05;;;;;;;88.33;29.00;;;;;;;;;;5004987;28;20508;-69
2022/11/23 09:53:33;;;;;;;81.93;27.73;;;;;;;;;;5010244;28;20473;-71
2022/11/23 09:56:00;;;;;;;82.37;28.00;;;;;;;;;;5026321;28;20536;-69
2022/11/23 09:58:29;;;;;;;84.87;29.27;;;;;;;;;;5010304;28;20437;-71
2022/11/23 10:01:13;;;;;;;84.87;28.00;;;;;;;;;;4997306;28;20991;-69
2022/11/23 10:03:41;;;;;;;91.37;29.03;;;;;;;;;;5008901;28;20485;-66
2022/11/23 10:06:20;;;;;;;81.17;26.87;;;;;;;;;;5026063;28;20444;-67
2022/11/23 10:09:05;;;;;;;82.87;27.30;;;;;;;;;;5009058;28;20445;-68
2022/11/23 10:11:56;;;;;;;80.77;26.43;;;;;;;;;;5027329;28;21282;-66
2022/11/23 10:14:38;;;;;;;75.67;27.13;;;;;;;;;;5026938;28;20442;-67
2022/11/23 10:17:17;;;;;;;80.50;30.33;;;;;;;;;;5006734;28;20435;-67
2022/11/23 10:19:44;;;;;;;84.90;29.40;;;;;;;;;;5009169;28;20441;-68
2022/11/23 10:22:29;;;;;;;82.13;28.60;;;;;;;;;;5026647;28;20492;-68
2022/11/23 10:24:56;;;;;;;71.90;26.40;;;;;;;;;;5026505;28;20492;-68
2022/11/23 10:27:23;;;;;;;87.83;28.00;;;;;;;;;;5009608;28;20455;-67
2022/11/23 10:29:52;;;;;;;78.00;26.53;;;;;;;;;;5009520;28;20466;-67
2022/11/23 10:32:21;;;;;;;85.63;28.23;;;;;;;;;;5026543;28;20600;-68
2022/11/23 10:35:05;;;;;;;76.17;26.13;;;;;;;;;;5027420;28;20433;-66
2022/11/23 10:37:32;;;;;;;76.03;25.27;;;;;;;;;;5027791;28;20431;-67
2022/11/23 10:39:59;;;;;;;77.17;26.20;;;;;;;;;;5010015;28;20438;-67
2022/11/23 10:42:41;;;;;;;79.70;26.37;;;;;;;;;;5007964;28;20467;-68
2022/11/23 10:45:18;;;;;;;81.60;26.30;;;;;;;;;;5009715;28;20434;-67
2022/11/23 10:47:48;;;;;;;73.73;24.93;;;;;;;;;;5027359;28;20488;-70
2022/11/23 10:50:19;;;;;;;79.27;27.53;;;;;;;;;;5006032;28;20449;-68
2022/11/23 10:52:51;;;;;;;81.23;27.80;;;;;;;;;;5005131;28;20561;-68
2022/11/23 10:55:18;;;;;;;77.77;25.43;;;;;;;;;;5014896;28;20505;-68
2022/11/23 10:57:46;;;;;;;80.20;27.07;;;;;;;;;;5009010;28;20441;-69
2022/11/23 11:00:14;;;;;;;75.03;26.93;;;;;;;;;;5025831;28;20438;-69
2022/11/23 11:02:48;;;;;;;91.10;29.37;;;;;;;;;;5008919;28;20437;-68
2022/11/23 11:05:32;;;;;;;83.73;26.77;;;;;;;;;;5026263;28;20441;-67
2022/11/23 11:08:19;;;;;;;84.67;26.80;;;;;;;;;;5005755;28;20427;-66
2022/11/23 11:10:56;;;;;;;85.67;28.27;;;;;;;;;;5018350;28;20441;-67
2022/11/23 11:13:26;;;;;;;87.10;28.63;;;;;;;;;;5026294;28;20477;-67
2022/11/23 11:16:02;;;;;;;86.67;29.40;;;;;;;;;;5025828;28;21184;-67
2022/11/23 11:18:30;;;;;;;85.83;29.30;;;;;;;;;;5026368;28;21036;-66
2022/11/23 11:20:58;;;;;;;81.70;27.77;;;;;;;;;;5025709;28;20438;-68
2022/11/23 11:23:25;;;;;;;81.70;27.37;;;;;;;;;;5026365;28;20520;-67
2022/11/23 11:26:14;;;;;;;80.93;26.90;;;;;;;;;;5008265;28;20775;-67
2022/11/23 11:28:41;;;;;;;88.33;29.17;;;;;;;;;;5009115;28;20441;-65
2022/11/23 11:31:45;;;;;;;93.83;30.73;;;;;;;;;;5024740;28;20512;-68
2022/11/23 11:34:14;;;;;;;78.67;26.87;;;;;;;;;;5026913;28;20448;-68
2022/11/23 11:37:13;;;;;;;70.17;25.40;;;;;;;;;;5027475;28;20445;-67
2022/11/23 11:39:48;;;;;;;73.37;24.53;;;;;;;;;;5011148;28;20441;-66
2022/11/23 11:42:19;;;;;;;66.10;23.70;;;;;;;;;;4991248;28;20541;-65
2022/11/23 11:44:47;;;;;;;70.10;23.07;;;;;;;;;;5012898;28;20458;-65
2022/11/23 11:47:20;;;;;;;73.03;24.57;;;;;;;;;;5025990;28;20454;-67
2022/11/23 11:49:47;;;;;;;68.93;23.90;;;;;;;;;;5011752;28;20460;-66
2022/11/23 11:52:14;;;;;;;74.60;25.83;;;;;;;;;;5011752;28;20544;-66
2022/11/23 11:54:44;;;;;;;72.57;24.70;;;;;;;;;;5010840;28;20480;-68
2022/11/23 11:57:14;;;;;;;73.87;25.03;;;;;;;;;;5028385;28;21039;-65
2022/11/23 11:59:42;;;;;;;68.37;23.73;;;;;;;;;;5011395;28;21082;-66
2022/11/23 12:02:28;;;;;;;73.57;24.60;;;;;;;;;;5011528;28;20442;-65
2022/11/23 12:05:02;;;;;;;68.97;22.90;;;;;;;;;;5027987;28;20457;-68
2022/11/23 12:07:29;;;;;;;69.50;24.40;;;;;;;;;;5030109;28;20500;-66
2022/11/23 12:09:59;;;;;;;69.77;25.17;;;;;;;;;;5029497;28;20473;-67
2022/11/23 12:12:25;;;;;;;77.70;26.03;;;;;;;;;;5029244;28;20504;-65
2022/11/23 12:14:55;;;;;;;64.13;23.47;;;;;;;;;;5012226;28;20504;-67
2022/11/23 12:17:31;;;;;;;60.47;22.27;;;;;;;;;;4993280;28;20449;-66
2022/11/23 12:20:17;;;;;;;55.17;22.67;;;;;;;;;;5028346;28;20443;-67
2022/11/23 12:23:01;;;;;;;64.13;23.03;;;;;;;;;;5029573;28;20433;-68
2022/11/23 12:25:33;;;;;;;57.43;21.80;;;;;;;;;;5028595;28;20430;-65
2022/11/23 12:28:04;;;;;;;54.10;19.80;;;;;;;;;;5012287;28;20442;-68
2022/11/23 12:30:31;;;;;;;61.07;21.27;;;;;;;;;;5009881;28;20779;-67
2022/11/23 12:33:16;;;;;;;63.17;22.87;;;;;;;;;;5027919;28;20480;-69
2022/11/23 12:36:01;;;;;;;75.57;25.93;;;;;;;;;;5027512;28;20469;-66
2022/11/23 12:38:34;;;;;;;83.93;29.27;;;;;;;;;;5028524;28;20432;-66
2022/11/23 12:41:14;;;;;;;71.87;25.53;;;;;;;;;;5028043;28;21154;-67
2022/11/23 12:43:57;;;;;;;54.33;21.03;;;;;;;;;;5028785;28;20438;-66
2022/11/23 12:46:48;;;;;;;55.00;19.50;;;;;;;;;;5012892;28;20995;-66
2022/11/23 12:49:27;;;;;;;53.57;20.03;;;;;;;;;;5010346;28;20463;-66
2022/11/23 12:52:11;;;;;;;56.23;21.27;;;;;;;;;;5027570;28;20431;-64
2022/11/23 12:54:44;;;;;;;58.30;20.57;;;;;;;;;;5027801;28;20450;-63
2022/11/23 12:57:22;;;;;;;53.47;21.40;;;;;;;;;;5027827;28;20467;-66
2022/11/23 12:59:55;;;;;;;48.33;20.33;;;;;;;;;;5012689;28;20453;-68
2022/11/23 13:02:32;;;;;;;47.77;19.47;;;;;;;;;;5027956;28;20796;-66
2022/11/23 13:05:23;;;;;;;49.77;21.57;;;;;;;;;;5027135;28;20450;-67
2022/11/23 13:08:00;;;;;;;50.53;20.70;;;;;;;;;;5028433;28;20541;-66
2022/11/23 13:10:49;;;;;;;52.53;21.67;;;;;;;;;;5028720;28;20846;-65
2022/11/23 13:13:36;;;;;;;61.13;21.47;;;;;;;;;;5028523;28;20509;-65
2022/11/23 13:16:07;;;;;;;56.37;20.60;;;;;;;;;;5028113;28;20434;-66
2022/11/23 13:19:01;;;;;;;60.20;21.80;;;;;;;;;;5028807;28;20450;-65
2022/11/23 13:21:34;;;;;;;50.60;21.83;;;;;;;;;;5028215;28;20875;-65
2022/11/23 13:24:01;;;;;;;53.83;21.23;;;;;;;;;;5027842;28;20438;-66
2022/11/23 13:26:30;;;;;;;63.77;23.80;;;;;;;;;;5027004;28;20464;-66
2022/11/23 13:28:57;;;;;;;52.47;22.50;;;;;;;;;;5010811;28;21047;-66
2022/11/23 13:31:29;;;;;;;57.00;21.97;;;;;;;;;;5011224;28;20462;-66
2022/11/23 13:34:00;;;;;;;49.57;20.00;;;;;;;;;;5027795;28;20536;-66
2022/11/23 13:36:30;;;;;;;48.27;19.73;;;;;;;;;;5027369;28;20441;-66
2022/11/23 13:39:36;;;;;;;50.07;19.83;;;;;;;;;;5027453;28;20853;-66
2022/11/23 13:42:03;;;;;;;48.73;20.13;;;;;;;;;;5027918;28;20867;-67
2022/11/23 13:44:30;;;;;;;50.47;19.70;;;;;;;;;;5008813;28;20533;-66
2022/11/23 13:47:16;;;;;;;42.03;18.50;;;;;;;;;;5027095;28;20456;-67
2022/11/23 13:49:42;;;;;;;47.87;18.10;;;;;;;;;;5026251;28;20528;-66
2022/11/23 13:52:15;;;;;;;42.17;18.67;;;;;;;;;;5029820;28;21000;-66
2022/11/23 13:55:03;;;;;;;43.87;18.80;;;;;;;;;;4995667;28;20504;-66
2022/11/23 13:57:39;;;;;;;45.20;17.30;;;;;;;;;;5010170;28;21080;-66
2022/11/23 14:00:25;;;;;;;44.87;18.17;;;;;;;;;;5009764;28;20856;-66
2022/11/23 14:02:51;;;;;;;43.20;18.20;;;;;;;;;;5010277;28;20841;-66
2022/11/23 14:05:34;;;;;;;42.80;17.60;;;;;;;;;;5008778;28;20860;-66
2022/11/23 14:08:19;;;;;;;43.40;19.07;;;;;;;;;;5008887;28;20513;-66
2022/11/23 14:10:45;;;;;;;42.47;18.43;;;;;;;;;;5009995;28;20497;-67
2022/11/23 14:13:31;;;;;;;37.27;16.83;;;;;;;;;;5009269;28;20556;-66
2022/11/23 14:15:59;;;;;;;39.10;16.93;;;;;;;;;;5001817;28;20482;-64
2022/11/23 14:18:38;;;;;;;41.87;17.47;;;;;;;;;;5006957;28;20498;-67
2022/11/23 14:21:05;;;;;;;46.67;17.97;;;;;;;;;;4997822;28;20442;-66
2022/11/23 14:23:51;;;;;;;48.10;18.37;;;;;;;;;;5001427;28;20431;-67
2022/11/23 14:26:20;;;;;;;46.23;19.47;;;;;;;;;;5009274;28;20447;-66
2022/11/23 14:28:50;;;;;;;49.37;19.57;;;;;;;;;;5008428;28;20508;-66
2022/11/23 14:31:17;;;;;;;45.40;19.37;;;;;;;;;;5004025;28;20466;-65
2022/11/23 14:33:49;;;;;;;48.43;19.93;;;;;;;;;;5000150;28;20835;-65
2022/11/23 14:36:40;;;;;;;46.00;21.07;;;;;;;;;;5015021;28;21142;-65
2022/11/23 14:39:07;;;;;;;51.03;21.43;;;;;;;;;;4997856;28;20959;-65
2022/11/23 14:41:37;;;;;;;53.30;20.93;;;;;;;;;;5003627;28;20477;-68